createdAt,value
2023-09-23T00:02:44.836Z,100058.23261892116
2023-09-23T00:05:45.438Z,100057.33828932761
2023-09-23T00:08:41.711Z,100055.54366786648
2023-09-23T00:11:38.384Z,100051.20337498361
2023-09-23T00:14:33.799Z,100056.00535676906
2023-09-23T00:17:29.409Z,100059.0393884665
2023-09-23T00:20:27.908Z,100061.24921048635
2023-09-23T00:23:28.475Z,100066.06306005637
2023-09-23T00:26:27.003Z,100068.24118539825
2023-09-23T00:29:27.565Z,100066.87341835379
2023-09-23T00:32:24.145Z,100066.91514468862
2023-09-23T00:35:22.678Z,100069.93536707727
2023-09-23T00:38:23.240Z,100073.04325072038
2023-09-23T00:41:19.865Z,100073.49722356308
2023-09-23T00:44:17.416Z,100082.2133766665
2023-09-23T00:47:15.977Z,100073.4649329638
2023-09-23T00:50:18.600Z,100072.59710131223
2023-09-23T00:53:15.114Z,100067.30714759564
2023-09-23T00:56:17.617Z,100067.78300983524
2023-09-23T00:59:18.203Z,100071.29522176436
2023-09-23T01:02:14.798Z,100066.43108164331
2023-09-23T01:05:10.232Z,100070.25857241385
2023-09-23T01:08:19.812Z,100070.30163397783
2023-09-23T01:11:18.373Z,100070.29694496108
2023-09-23T01:14:15.980Z,100063.34289141723
2023-09-23T01:17:15.478Z,100074.24906223547
2023-09-23T01:20:15.053Z,100075.97803584594
2023-09-23T01:23:11.536Z,100075.98746316861
2023-09-23T01:26:13.297Z,100082.13480767384
2023-09-23T01:29:08.698Z,100082.98784682015
2023-09-23T01:32:14.240Z,100097.39420796203
2023-09-23T01:35:09.775Z,100102.2142412993
2023-09-23T01:38:08.315Z,100104.3404577113
2023-09-23T01:41:05.881Z,100107.22622265467
2023-09-23T01:44:02.484Z,100103.82246477551
2023-09-23T01:46:59.087Z,100099.5302714381
2023-09-23T01:49:54.606Z,100106.53672641666
2023-09-23T01:52:50.140Z,100110.04767001729
2023-09-23T01:55:47.682Z,100113.98172376606
2023-09-23T01:58:46.154Z,100118.33871675626
2023-09-23T02:01:41.867Z,100115.6934395907
2023-09-23T02:04:41.466Z,100106.03556319246
2023-09-23T02:07:39.910Z,100102.54026106224
2023-09-23T02:10:36.434Z,100106.8682672103
2023-09-23T02:13:36.987Z,100109.4527775636
2023-09-23T02:16:34.679Z,100114.67200255879
2023-09-23T02:19:30.108Z,100126.43003416457
2023-09-23T02:22:25.671Z,100126.49591939173
2023-09-23T02:25:26.551Z,100130.37569099627
2023-09-23T02:28:21.826Z,100128.20187329841
2023-09-23T02:31:17.395Z,100133.46271187304
2023-09-23T02:34:12.894Z,100136.09915808494
2023-09-23T02:37:09.484Z,100150.93960295664
2023-09-23T02:40:07.028Z,100153.99664294865
2023-09-23T02:43:05.584Z,100161.87103177338
2023-09-23T02:46:01.197Z,100170.37685104966
2023-09-23T02:48:57.721Z,100181.1413838554
2023-09-23T02:51:53.262Z,100191.16357809688
2023-09-23T02:54:52.823Z,100209.93437453549
2023-09-23T02:57:50.379Z,100224.17772474677
2023-09-23T03:00:57.916Z,100236.68790857762
2023-09-23T03:07:02.998Z,100236.42216734166
2023-09-23T03:10:01.611Z,100256.75113790043
2023-09-23T03:13:06.133Z,100254.24822721865
2023-09-23T03:16:11.652Z,100252.09285900638
2023-09-23T03:19:11.196Z,100259.17461628899
2023-09-23T03:22:08.723Z,100274.62704475776
2023-09-23T03:25:05.301Z,100258.71898216821
2023-09-23T03:28:00.854Z,100267.71256538057
2023-09-23T03:30:59.377Z,100264.89387396899
2023-09-23T03:33:57.029Z,100249.33726878194
2023-09-23T03:36:53.548Z,100242.73409262882
2023-09-23T03:39:50.070Z,100243.58864442659
2023-09-23T03:42:48.652Z,100244.47959533829
2023-09-23T03:45:44.269Z,100240.1819864725
2023-09-23T03:48:39.737Z,100237.38808372327
2023-09-23T03:51:38.317Z,100235.75220331167
2023-09-23T03:54:33.830Z,100235.94204958453
2023-09-23T03:57:29.490Z,100223.46579347357
2023-09-23T04:00:27.986Z,100226.8339677325
2023-09-23T04:03:23.600Z,100219.2283178871
2023-09-23T04:06:25.094Z,100219.35741974642
2023-09-23T04:09:21.669Z,100216.77529094639
2023-09-23T04:12:19.297Z,100208.87852952744
2023-09-23T04:15:15.773Z,100201.0808319205
2023-09-23T04:18:12.352Z,100202.90171825935
2023-09-23T04:21:09.951Z,100202.96552250344
2023-09-23T04:24:07.453Z,100202.58035659751
2023-09-23T04:27:03.013Z,100191.25699055177
2023-09-23T04:30:02.661Z,100174.65880654787
2023-09-23T04:33:01.232Z,100175.5191865114
2023-09-23T04:35:57.648Z,100163.33546269758
2023-09-23T04:38:53.253Z,100166.42365269166
2023-09-23T04:41:48.781Z,100173.07119578026
2023-09-23T04:44:45.580Z,100173.58226807552
2023-09-23T04:47:40.945Z,100180.40609059855
2023-09-23T04:50:40.466Z,100173.69382987486
2023-09-23T04:53:36.999Z,100180.75918078997
2023-09-23T04:56:41.562Z,100178.28728391764
2023-09-23T04:59:38.120Z,100184.92612061564
2023-09-23T05:02:33.931Z,100188.02160131134
2023-09-23T05:05:29.352Z,100185.02098575403
2023-09-23T05:08:25.876Z,100190.30146682834
2023-09-23T05:11:22.656Z,100201.43680830346
2023-09-23T05:14:18.042Z,100206.42261031437
2023-09-23T05:17:16.488Z,100210.05988593001
2023-09-23T05:20:15.039Z,100215.23833881118
2023-09-23T05:23:11.653Z,100223.61464269391
2023-09-23T05:26:09.209Z,100220.12816246458
2023-09-23T05:29:04.757Z,100214.09810559257
2023-09-23T05:32:02.329Z,100203.39568046105
2023-09-23T05:35:01.844Z,100200.76066501753
2023-09-23T05:37:57.425Z,100200.91317298333
2023-09-23T05:40:57.999Z,100199.56347627105
2023-09-23T05:43:54.496Z,100201.67205576473
2023-09-23T05:46:51.084Z,100204.96074481159
2023-09-23T05:49:47.885Z,100210.32333692476
2023-09-23T05:52:46.206Z,100200.50823224432
2023-09-23T05:55:41.716Z,100211.25130118329
2023-09-23T05:58:37.283Z,100218.0472089002
2023-09-23T06:01:34.881Z,100219.59276563312
2023-09-23T06:04:31.468Z,100229.72041154226
2023-09-23T06:07:27.982Z,100242.47876806959
2023-09-23T06:10:23.608Z,100244.85546966502
2023-09-23T06:13:19.088Z,100260.7282447115
2023-09-23T06:16:17.729Z,100264.4483518074
2023-09-23T06:19:14.233Z,100280.64170975491
2023-09-23T06:22:09.809Z,100287.30102722849
2023-09-23T06:25:07.397Z,100312.43907919683
2023-09-23T06:28:04.901Z,100346.63900574633
2023-09-23T06:31:00.464Z,100392.16446525394
2023-09-23T06:33:55.968Z,100412.10431626173
2023-09-23T06:36:51.565Z,100404.24087877819
2023-09-23T06:39:47.141Z,100405.45986107824
2023-09-23T06:42:45.697Z,100414.27680522889
2023-09-23T06:45:42.243Z,100428.55405251143
2023-09-23T06:48:38.804Z,100453.04247062874
2023-09-23T06:51:35.334Z,100455.46864406507
2023-09-23T06:54:30.936Z,100456.88666418227
2023-09-23T06:57:26.469Z,100453.887801771
2023-09-23T07:00:23.019Z,100461.3009705165
2023-09-23T07:03:18.819Z,100462.48988762079
2023-09-23T07:06:15.165Z,100482.62205257732
2023-09-23T07:09:11.749Z,100487.8347673051
2023-09-23T07:12:07.330Z,100497.58599067491
2023-09-23T07:15:03.850Z,100506.1585229938
2023-09-23T07:18:00.401Z,100512.51380676839
2023-09-23T07:20:56.960Z,100520.85837785281
2023-09-23T07:23:52.527Z,100551.56546292614
2023-09-23T07:26:55.068Z,100549.02324655058
2023-09-23T07:29:51.638Z,100543.35673748536
2023-09-23T07:32:47.206Z,100546.91513775667
2023-09-23T07:35:43.776Z,100551.45268254315
2023-09-23T07:38:40.291Z,100569.64937935286
2023-09-23T07:41:36.864Z,100578.81155391241
2023-09-23T07:44:32.476Z,100586.43475791118
2023-09-23T07:47:28.082Z,100567.88919912154
2023-09-23T07:50:24.647Z,100562.81656250103
2023-09-23T07:53:20.169Z,100555.10913178275
2023-09-23T07:56:16.718Z,100540.44639237245
2023-09-23T07:59:12.280Z,100549.70641763415
2023-09-23T08:02:07.867Z,100543.6842288398
2023-09-23T08:05:05.511Z,100534.6585660178
2023-09-23T08:08:00.958Z,100518.7081375467
2023-09-23T08:10:56.532Z,100513.63790487302
2023-09-23T08:13:53.069Z,100523.96745119256
2023-09-23T08:16:49.607Z,100518.56879737941
2023-09-23T08:19:46.143Z,100517.67026595595
2023-09-23T08:22:41.745Z,100503.99864469582
2023-09-23T08:25:37.341Z,100499.53083133575
2023-09-23T08:28:35.852Z,100490.52155947433
2023-09-23T08:31:32.433Z,100501.72294703918
2023-09-23T08:34:28.934Z,100492.1206345859
2023-09-23T08:37:24.503Z,100484.1036364348
2023-09-23T08:40:22.079Z,100490.04846894307
2023-09-23T08:43:36.549Z,100476.55802634919
2023-09-23T08:46:33.144Z,100468.26934021332
2023-09-23T08:49:29.747Z,100468.52575133083
2023-09-23T08:52:28.269Z,100460.73352814405
2023-09-23T08:55:25.834Z,100457.23557931934
2023-09-23T08:58:22.401Z,100452.01062485477
2023-09-23T09:01:22.025Z,100436.6069187315
2023-09-23T09:04:18.476Z,100408.98101349435
2023-09-23T09:07:24.022Z,100422.79301199903
2023-09-23T09:10:19.677Z,100417.78553688964
2023-09-23T09:13:18.135Z,100407.77436173595
2023-09-23T09:16:14.704Z,100400.62363537376
2023-09-23T09:19:11.258Z,100398.25074709646
2023-09-23T09:22:08.807Z,100407.24406568211
2023-09-23T09:25:08.388Z,100397.31569123274
2023-09-23T09:28:04.940Z,100399.95180428412
2023-09-23T09:31:02.570Z,100402.83939723708
2023-09-23T09:34:00.988Z,100393.8885316315
2023-09-23T09:36:58.602Z,100385.45771637026
2023-09-23T09:39:59.158Z,100384.33965873398
2023-09-23T09:46:11.448Z,100390.74755487146
2023-09-23T09:49:10.741Z,100392.12240880558
2023-09-23T09:52:07.320Z,100383.35431111553
2023-09-23T09:55:06.905Z,100378.48944434749
2023-09-23T09:58:05.432Z,100387.40967750023
2023-09-23T10:01:03.050Z,100401.06718112966
2023-09-23T10:04:00.628Z,100399.15040950384
2023-09-23T10:06:57.120Z,100395.63827401011
2023-09-23T10:09:59.664Z,100394.95587387469
2023-09-23T10:13:04.167Z,100390.88172017314
2023-09-23T10:16:05.717Z,100388.00938961799
2023-09-23T10:19:11.329Z,100369.87105819568
2023-09-23T10:22:13.834Z,100372.20839758846
2023-09-23T10:25:12.377Z,100375.85680710718
2023-09-23T10:28:17.917Z,100383.20178603851
2023-09-23T10:31:16.471Z,100381.28205348348
2023-09-23T10:34:15.011Z,100374.64334349905
2023-09-23T10:37:13.572Z,100363.86706446653
2023-09-23T10:40:14.186Z,100367.85148814505
2023-09-23T10:43:10.665Z,100366.34190756938
2023-09-23T10:46:07.317Z,100362.611014882
2023-09-23T10:49:05.775Z,100364.48849733098
2023-09-23T10:52:02.371Z,100362.06236365654
2023-09-23T10:54:58.917Z,100371.21057357085
2023-09-23T10:57:56.496Z,100374.29353565
2023-09-23T11:00:54.036Z,100380.86994872385
2023-09-23T11:03:52.811Z,100382.02466197746
2023-09-23T11:06:49.185Z,100385.42121221303
2023-09-23T11:09:46.787Z,100374.96485177436
2023-09-23T11:12:46.303Z,100370.19872811997
2023-09-23T11:15:47.076Z,100379.69434945934
2023-09-23T11:18:44.369Z,100371.8062759614
2023-09-23T11:21:43.910Z,100369.18024090902
2023-09-23T11:24:40.558Z,100373.48968852528
2023-09-23T11:27:39.057Z,100359.31945032782
2023-09-23T11:30:37.582Z,100365.6307616509
2023-09-23T11:33:38.111Z,100357.04910204402
2023-09-23T11:36:34.727Z,100354.95479036799
2023-09-23T11:39:36.269Z,100357.03714325861
2023-09-23T11:42:34.774Z,100362.42693526114
2023-09-23T11:45:33.374Z,100366.20713543154
2023-09-23T11:48:29.947Z,100370.63526215129
2023-09-23T11:51:27.548Z,100378.51263304337
2023-09-23T11:54:23.036Z,100380.90501853405
2023-09-23T11:57:19.630Z,100383.86634133506
2023-09-23T12:00:18.559Z,100383.42041863593
2023-09-23T12:03:15.737Z,100386.41211737502
2023-09-23T12:06:13.261Z,100391.18661768758
2023-09-23T12:09:11.863Z,100387.8685448869
2023-09-23T12:12:10.383Z,100397.76205207164
2023-09-23T12:15:08.938Z,100401.29701148545
2023-09-23T12:18:05.526Z,100405.64607372403
2023-09-23T12:21:02.539Z,100403.08588844337
2023-09-23T12:23:59.612Z,100399.75734327175
2023-09-23T12:27:00.146Z,100391.489176808
2023-09-23T12:29:56.675Z,100377.23504324924
2023-09-23T12:32:52.378Z,100380.79299449148
2023-09-23T12:35:47.903Z,100366.07338281267
2023-09-23T12:38:43.373Z,100366.99447144802
2023-09-23T12:41:43.936Z,100352.67190499147
2023-09-23T12:44:41.520Z,100356.39053633728
2023-09-23T12:47:54.989Z,100357.81589302463
2023-09-23T12:50:41.607Z,100360.01129604885
2023-09-23T12:53:38.190Z,100346.99067338505
2023-09-23T12:56:34.738Z,100353.44606420278
2023-09-23T12:59:32.288Z,100348.88558079742
2023-09-23T13:02:28.972Z,100357.67638390997
2023-09-23T13:05:24.433Z,100348.26166660953
2023-09-23T13:08:21.024Z,100362.36164825018
2023-09-23T13:11:17.517Z,100360.68606671834
2023-09-23T13:14:13.089Z,100358.9313496242
2023-09-23T13:17:09.657Z,100351.4304808506
2023-09-23T13:20:07.348Z,100354.9343360918
2023-09-23T13:23:04.079Z,100350.19825841737
2023-09-23T13:26:03.366Z,100353.26691489422
2023-09-23T13:28:58.898Z,100352.37740083305
2023-09-23T13:31:54.422Z,100350.67772090276
2023-09-23T13:34:50.054Z,100363.39901336217
2023-09-23T13:37:45.522Z,100360.37120151905
2023-09-23T13:40:43.117Z,100353.36140298005
2023-09-23T13:43:40.717Z,100349.4173103829
2023-09-23T13:46:37.291Z,100348.54138133134
2023-09-23T13:49:32.802Z,100336.23022080344
2023-09-23T13:52:30.330Z,100337.97329402318
2023-09-23T13:55:25.898Z,100335.34119762543
2023-09-23T13:58:21.409Z,100336.22229469777
2023-09-23T14:01:17.086Z,100324.83589754961
2023-09-23T14:04:13.638Z,100320.01606695076
2023-09-23T14:07:09.142Z,100316.5115027543
2023-09-23T14:10:18.676Z,100313.39690440764
2023-09-23T14:13:06.243Z,100312.94529255087
2023-09-23T14:16:02.960Z,100315.06852248973
2023-09-23T14:18:58.360Z,100327.5868079796
2023-09-23T14:21:55.949Z,100339.71881469867
2023-09-23T14:24:52.497Z,100357.92505426124
2023-09-23T14:27:49.020Z,100384.049080555
2023-09-23T14:30:44.623Z,100456.17398692292
2023-09-23T14:33:42.180Z,100467.52167148949
2023-09-23T14:36:38.766Z,100453.73402227006
2023-09-23T14:39:36.276Z,100419.33169026024
2023-09-23T14:42:34.861Z,100408.73661025323
2023-09-23T14:45:31.447Z,100410.49415528875
2023-09-23T14:48:28.023Z,100413.10994089578
2023-09-23T14:51:24.518Z,100404.8230767671
2023-09-23T14:54:20.064Z,100401.02323096746
2023-09-23T14:57:16.627Z,100395.9174398965
2023-09-23T15:00:14.212Z,100390.08532149573
2023-09-23T15:03:10.857Z,100389.0332991441
2023-09-23T15:06:07.334Z,100380.78741110483
2023-09-23T15:09:03.339Z,100388.85210690743
2023-09-23T15:12:01.445Z,100374.59782413459
2023-09-23T15:14:57.026Z,100370.19385169873
2023-09-23T15:17:53.605Z,100340.3109762264
2023-09-23T15:20:50.126Z,100330.34392791933
2023-09-23T15:23:45.701Z,100335.38932442025
2023-09-23T15:26:42.235Z,100343.44044794631
2023-09-23T15:29:37.832Z,100355.96506892574
2023-09-23T15:32:35.419Z,100365.46699640571
2023-09-23T15:35:31.972Z,100351.7897262175
2023-09-23T15:38:27.495Z,100340.28860597867
2023-09-23T15:41:25.080Z,100377.86476461487
2023-09-23T15:44:20.635Z,100427.17527302401
2023-09-23T15:47:18.177Z,100489.23104498906
2023-09-23T15:50:15.742Z,100582.27106253283
2023-09-23T15:53:11.289Z,100662.352600341
2023-09-23T15:56:08.875Z,100589.22128236003
2023-09-23T15:59:05.442Z,100557.29891710932
2023-09-23T16:02:01.132Z,100511.70797087309
2023-09-23T16:04:56.565Z,100499.38063804792
2023-09-23T16:07:52.054Z,100518.92270620071
2023-09-23T16:10:47.676Z,100536.63959862755
2023-09-23T16:13:43.212Z,100573.74342899557
2023-09-23T16:16:38.894Z,100575.64016345202
2023-09-23T16:19:35.312Z,100552.52343924364
2023-09-23T16:22:31.898Z,100539.75141045579
2023-09-23T16:25:27.485Z,100530.00264891789
2023-09-23T16:28:22.999Z,100506.60810074657
2023-09-23T16:31:18.647Z,100456.20806768734
2023-09-23T16:34:14.116Z,100449.84721468881
2023-09-23T16:37:09.660Z,100417.77114252851
2023-09-23T16:40:08.259Z,100402.83220136294
2023-09-23T16:43:04.780Z,100412.71625825237
2023-09-23T16:46:01.325Z,100424.21056622153
2023-09-23T16:48:58.915Z,100441.7375419666
2023-09-23T16:51:55.487Z,100538.65524673772
2023-09-23T16:54:51.033Z,100654.75512405811
2023-09-23T16:57:51.627Z,100492.84019845785
2023-09-23T17:00:49.174Z,100369.4400157061
2023-09-23T17:03:45.536Z,100520.86126977226
2023-09-23T17:06:42.247Z,100565.11177107044
2023-09-23T17:09:37.840Z,100518.94655857264
2023-09-23T17:12:34.490Z,100462.0700173121
2023-09-23T17:15:33.935Z,100420.95992399447
2023-09-23T17:18:30.504Z,100426.52805055909
2023-09-23T17:21:26.081Z,100401.21261582224
2023-09-23T17:24:21.628Z,100378.28468168418
2023-09-23T17:27:17.228Z,100424.90893065481
2023-09-23T17:30:12.734Z,100554.94500602277
2023-09-23T17:33:08.507Z,100661.96433346337
2023-09-23T17:36:05.884Z,100698.31069715413
2023-09-23T17:39:05.428Z,100678.24368028271
2023-09-23T17:42:02.968Z,100703.2834875097
2023-09-23T17:44:58.547Z,100715.76424502202
2023-09-23T17:47:54.258Z,100704.06928132889
2023-09-23T17:50:49.728Z,100606.06210722834
2023-09-23T17:53:47.343Z,100519.58663337288
2023-09-23T17:56:42.864Z,100491.01168606691
2023-09-23T17:59:39.365Z,100513.27524354328
2023-09-23T18:02:36.132Z,100527.78395696916
2023-09-23T18:05:33.581Z,100523.49672109226
2023-09-23T18:08:29.045Z,100510.507368927
2023-09-23T18:11:29.599Z,100502.24077760935
2023-09-23T18:14:25.138Z,100504.0757101017
2023-09-23T18:17:21.091Z,100519.12912774581
2023-09-23T18:20:22.287Z,100523.28860116421
2023-09-23T18:26:24.436Z,100561.41878640672
2023-09-23T18:29:22.037Z,100619.41781158454
2023-09-23T18:32:22.472Z,100629.28142484427
2023-09-23T18:35:19.065Z,100638.61663870129
2023-09-23T18:38:16.633Z,100653.64053303175
2023-09-23T18:41:16.192Z,100648.84029710869
2023-09-23T18:44:12.842Z,100631.29011887645
2023-09-23T18:47:11.190Z,100613.90318483165
2023-09-23T18:50:07.808Z,100618.5338872174
2023-09-23T18:53:05.321Z,100599.44365799907
2023-09-23T18:56:02.879Z,100599.69257632676
2023-09-23T18:58:59.470Z,100622.92067456027
2023-09-23T19:01:56.012Z,100619.10613388025
2023-09-23T19:04:52.578Z,100608.04267455838
2023-09-23T19:07:49.129Z,100608.58121217827
2023-09-23T19:10:46.684Z,100600.27293730843
2023-09-23T19:13:43.247Z,100588.52456367225
2023-09-23T19:16:40.828Z,100594.38855627622
2023-09-23T19:19:38.383Z,100597.77257019066
2023-09-23T19:22:33.920Z,100608.93346223116
2023-09-23T19:25:35.520Z,100625.60474784135
2023-09-23T19:28:30.992Z,100622.59293191665
2023-09-23T19:31:29.616Z,100622.53286629755
2023-09-23T19:34:27.132Z,100620.78921946597
2023-09-23T19:37:28.766Z,100597.19231418378
2023-09-23T19:40:25.251Z,100584.35755629698
2023-09-23T19:43:23.774Z,100573.29240981101
2023-09-23T19:46:27.418Z,100543.76076311633
2023-09-23T19:49:24.971Z,100548.20908459798
2023-09-23T19:52:22.442Z,100570.89573472728
2023-09-23T19:55:20.118Z,100564.73922757023
2023-09-23T19:58:19.604Z,100578.47981958534
2023-09-23T20:01:18.186Z,100593.26026476923
2023-09-23T20:04:14.678Z,100593.89134623056
2023-09-23T20:07:12.257Z,100607.71500809536
2023-09-23T20:10:10.770Z,100635.35484495797
2023-09-23T20:13:11.379Z,100626.5452556405
2023-09-23T20:16:10.264Z,100622.85926202389
2023-09-23T20:19:05.478Z,100618.85909779603
2023-09-23T20:22:03.045Z,100618.90726136073
2023-09-23T20:25:02.577Z,100615.96446113811
2023-09-23T20:27:59.217Z,100604.84700833853
2023-09-23T20:30:59.716Z,100603.35351382269
2023-09-23T20:33:58.277Z,100580.53018666444
2023-09-23T20:36:59.793Z,100595.4930377916
2023-09-23T20:39:57.360Z,100563.48589132933
2023-09-23T20:42:57.108Z,100569.32100797084
2023-09-23T20:45:56.471Z,100562.316724067
2023-09-23T20:48:54.023Z,100546.51400900769
2023-09-23T20:51:50.632Z,100528.36637797487
2023-09-23T20:54:47.202Z,100508.43445898453
2023-09-23T20:57:43.707Z,100503.49288997139
2023-09-23T21:00:46.318Z,100488.8523561213
2023-09-23T21:03:43.051Z,100469.83907156847
2023-09-23T21:06:42.045Z,100449.2519191827
2023-09-23T21:09:45.886Z,100438.06816390698
2023-09-23T21:12:42.513Z,100451.50543075522
2023-09-23T21:15:40.005Z,100453.89198315433
2023-09-23T21:18:38.692Z,100473.37308985837
2023-09-23T21:21:37.089Z,100483.98884213917
2023-09-23T21:24:33.632Z,100471.77013256922
2023-09-23T21:27:29.227Z,100448.6393462971
2023-09-23T21:30:24.786Z,100452.89796396634
2023-09-23T21:33:21.436Z,100472.39353042401
2023-09-23T21:36:17.883Z,100481.6449190421
2023-09-23T21:39:13.435Z,100484.5103561341
2023-09-23T21:42:11.027Z,100482.55492790948
2023-09-23T21:45:12.615Z,100495.80564371623
2023-09-23T21:48:08.302Z,100497.17407449537
2023-09-23T21:51:04.685Z,100503.19568272727
2023-09-23T21:54:02.255Z,100481.79981801455
2023-09-23T21:56:57.805Z,100483.88803628502
2023-09-23T21:59:56.386Z,100483.40096764787
2023-09-23T22:02:59.030Z,100491.63843367409
2023-09-23T22:05:56.502Z,100500.8881687383
2023-09-23T22:08:53.017Z,100512.86863085933
2023-09-23T22:11:51.652Z,100518.60177931002
2023-09-23T22:14:48.168Z,100518.25494063579
2023-09-23T22:17:46.790Z,100539.17735114525
2023-09-23T22:20:50.285Z,100543.29609247502
2023-09-23T22:23:49.061Z,100552.19635819322
2023-09-23T22:26:49.336Z,100561.03589974952
2023-09-23T22:29:45.919Z,100568.8661469012
2023-09-23T22:32:42.531Z,100577.04961590008
2023-09-23T22:35:40.051Z,100583.53178643889
2023-09-23T22:38:36.639Z,100569.46209974072
2023-09-23T22:41:32.398Z,100580.34330081596
2023-09-23T22:44:28.737Z,100595.18279169138
2023-09-23T22:47:24.299Z,100596.11210344451
2023-09-23T22:50:22.878Z,100593.6217663239
2023-09-23T22:53:18.440Z,100594.20293621442
2023-09-23T22:56:13.946Z,100588.53684780706
2023-09-23T22:59:11.491Z,100588.06372206523
2023-09-23T23:02:09.031Z,100579.6558332636
2023-09-23T23:05:05.694Z,100578.96909969175
2023-09-23T23:08:04.134Z,100575.58662445606
2023-09-23T23:11:00.712Z,100586.71548220512
2023-09-23T23:13:57.308Z,100600.62007251137
2023-09-23T23:16:53.867Z,100606.42350059254
2023-09-23T23:19:53.504Z,100594.19066910734
2023-09-23T23:22:50.006Z,100581.6444762559
2023-09-23T23:25:45.495Z,100570.75795214862
2023-09-23T23:28:41.091Z,100561.28479750452
2023-09-23T23:31:39.628Z,100561.57346420416
2023-09-23T23:34:38.168Z,100572.27193330528
2023-09-23T23:37:37.764Z,100583.9987469457
2023-09-23T23:40:33.370Z,100573.96799734847
2023-09-23T23:43:28.873Z,100570.505460271
2023-09-23T23:46:31.456Z,100575.62981195896
2023-09-23T23:49:26.978Z,100581.30461779864
2023-09-23T23:52:24.541Z,100577.50057903584
2023-09-23T23:55:20.054Z,100581.69217437263
2023-09-23T23:58:17.648Z,100602.53430640747
